sensor_id;sensor_type;location;lat;lon;timestamp;P1;durP1;ratioP1;P2;durP2;ratioP2
18649;SDS011;9454;53.516;10.478;2024-02-23T00:01:07;2.40;;;0.70;;
18649;SDS011;9454;53.516;10.478;2024-02-23T00:04:31;0.90;;;0.45;;
18649;SDS011;9454;53.516;10.478;2024-02-23T00:07:35;1.60;;;0.80;;
18649;SDS011;9454;53.516;10.478;2024-02-23T00:10:40;3.33;;;0.60;;
18649;SDS011;9454;53.516;10.478;2024-02-23T00:13:44;0.73;;;0.65;;
18649;SDS011;9454;53.516;10.478;2024-02-23T00:16:50;2.78;;;1.05;;
18649;SDS011;9454;53.516;10.478;2024-02-23T00:19:55;2.15;;;0.55;;
18649;SDS011;9454;53.516;10.478;2024-02-23T00:22:59;1.58;;;0.60;;
18649;SDS011;9454;53.516;10.478;2024-02-23T00:26:03;1.85;;;0.70;;
18649;SDS011;9454;53.516;10.478;2024-02-23T00:29:07;0.45;;;0.45;;
18649;SDS011;9454;53.516;10.478;2024-02-23T00:32:14;1.92;;;0.50;;
18649;SDS011;9454;53.516;10.478;2024-02-23T00:35:19;2.72;;;0.50;;
18649;SDS011;9454;53.516;10.478;2024-02-23T00:38:23;0.40;;;0.40;;
18649;SDS011;9454;53.516;10.478;2024-02-23T00:41:27;1.38;;;0.40;;
18649;SDS011;9454;53.516;10.478;2024-02-23T00:44:30;0.63;;;0.40;;
18649;SDS011;9454;53.516;10.478;2024-02-23T00:47:34;0.88;;;0.55;;
18649;SDS011;9454;53.516;10.478;2024-02-23T00:50:40;1.02;;;0.65;;
18649;SDS011;9454;53.516;10.478;2024-02-23T00:53:44;1.38;;;0.55;;
18649;SDS011;9454;53.516;10.478;2024-02-23T00:56:47;1.73;;;0.40;;
18649;SDS011;9454;53.516;10.478;2024-02-23T00:59:54;1.60;;;0.52;;
18649;SDS011;9454;53.516;10.478;2024-02-23T01:02:58;2.88;;;0.50;;
18649;SDS011;9454;53.516;10.478;2024-02-23T01:06:03;4.55;;;0.80;;
18649;SDS011;9454;53.516;10.478;2024-02-23T01:09:07;0.75;;;0.40;;
18649;SDS011;9454;53.516;10.478;2024-02-23T01:12:11;8.32;;;0.70;;
18649;SDS011;9454;53.516;10.478;2024-02-23T01:15:15;1.10;;;0.47;;
18649;SDS011;9454;53.516;10.478;2024-02-23T01:18:19;5.95;;;0.70;;
18649;SDS011;9454;53.516;10.478;2024-02-23T01:21:24;1.95;;;1.27;;
18649;SDS011;9454;53.516;10.478;2024-02-23T01:24:28;1.17;;;0.60;;
18649;SDS011;9454;53.516;10.478;2024-02-23T01:27:32;10.10;;;0.70;;
18649;SDS011;9454;53.516;10.478;2024-02-23T01:30:37;2.63;;;1.10;;
18649;SDS011;9454;53.516;10.478;2024-02-23T01:33:40;4.25;;;0.50;;
18649;SDS011;9454;53.516;10.478;2024-02-23T01:36:54;3.72;;;0.40;;
18649;SDS011;9454;53.516;10.478;2024-02-23T01:39:58;3.28;;;0.40;;
18649;SDS011;9454;53.516;10.478;2024-02-23T01:43:02;0.22;;;0.22;;
18649;SDS011;9454;53.516;10.478;2024-02-23T01:46:05;0.35;;;0.20;;
18649;SDS011;9454;53.516;10.478;2024-02-23T01:49:09;0.28;;;0.28;;
18649;SDS011;9454;53.516;10.478;2024-02-23T01:52:15;0.65;;;0.30;;
18649;SDS011;9454;53.516;10.478;2024-02-23T01:55:24;0.25;;;0.25;;
18649;SDS011;9454;53.516;10.478;2024-02-23T01:58:28;0.22;;;0.22;;
18649;SDS011;9454;53.516;10.478;2024-02-23T02:01:36;0.30;;;0.30;;
18649;SDS011;9454;53.516;10.478;2024-02-23T02:04:40;0.40;;;0.40;;
18649;SDS011;9454;53.516;10.478;2024-02-23T02:07:45;0.30;;;0.30;;
18649;SDS011;9454;53.516;10.478;2024-02-23T02:10:52;1.33;;;0.40;;
18649;SDS011;9454;53.516;10.478;2024-02-23T02:13:56;0.30;;;0.30;;
18649;SDS011;9454;53.516;10.478;2024-02-23T02:16:59;0.40;;;0.40;;
18649;SDS011;9454;53.516;10.478;2024-02-23T02:20:05;1.30;;;0.47;;
18649;SDS011;9454;53.516;10.478;2024-02-23T02:23:10;2.80;;;0.65;;
18649;SDS011;9454;53.516;10.478;2024-02-23T02:26:16;1.42;;;0.47;;
18649;SDS011;9454;53.516;10.478;2024-02-23T02:29:20;0.68;;;0.50;;
18649;SDS011;9454;53.516;10.478;2024-02-23T02:32:24;1.35;;;0.55;;
18649;SDS011;9454;53.516;10.478;2024-02-23T02:35:28;0.43;;;0.43;;
18649;SDS011;9454;53.516;10.478;2024-02-23T02:38:33;1.20;;;0.40;;
18649;SDS011;9454;53.516;10.478;2024-02-23T02:41:37;1.05;;;0.50;;
18649;SDS011;9454;53.516;10.478;2024-02-23T02:44:40;3.47;;;0.47;;
18649;SDS011;9454;53.516;10.478;2024-02-23T02:47:44;0.38;;;0.38;;
18649;SDS011;9454;53.516;10.478;2024-02-23T02:50:48;0.40;;;0.40;;
18649;SDS011;9454;53.516;10.478;2024-02-23T02:53:56;0.30;;;0.30;;
18649;SDS011;9454;53.516;10.478;2024-02-23T02:57:00;0.30;;;0.30;;
18649;SDS011;9454;53.516;10.478;2024-02-23T03:00:05;0.30;;;0.30;;
18649;SDS011;9454;53.516;10.478;2024-02-23T03:03:12;0.35;;;0.35;;
18649;SDS011;9454;53.516;10.478;2024-02-23T03:06:16;0.30;;;0.30;;
18649;SDS011;9454;53.516;10.478;2024-02-23T03:09:24;1.27;;;0.40;;
18649;SDS011;9454;53.516;10.478;2024-02-23T03:12:28;1.65;;;0.40;;
18649;SDS011;9454;53.516;10.478;2024-02-23T03:15:35;0.40;;;0.40;;
18649;SDS011;9454;53.516;10.478;2024-02-23T03:18:39;1.67;;;0.38;;
18649;SDS011;9454;53.516;10.478;2024-02-23T03:21:47;0.30;;;0.30;;
18649;SDS011;9454;53.516;10.478;2024-02-23T03:24:52;0.30;;;0.30;;
18649;SDS011;9454;53.516;10.478;2024-02-23T03:27:55;0.30;;;0.30;;
18649;SDS011;9454;53.516;10.478;2024-02-23T03:30:59;3.13;;;0.40;;
18649;SDS011;9454;53.516;10.478;2024-02-23T03:34:05;1.58;;;0.30;;
18649;SDS011;9454;53.516;10.478;2024-02-23T03:37:09;0.35;;;0.35;;
18649;SDS011;9454;53.516;10.478;2024-02-23T03:40:15;0.30;;;0.30;;
18649;SDS011;9454;53.516;10.478;2024-02-23T03:43:19;2.38;;;0.50;;
18649;SDS011;9454;53.516;10.478;2024-02-23T03:46:24;0.73;;;0.30;;
18649;SDS011;9454;53.516;10.478;2024-02-23T03:49:35;0.30;;;0.30;;
18649;SDS011;9454;53.516;10.478;2024-02-23T03:52:40;0.73;;;0.30;;
18649;SDS011;9454;53.516;10.478;2024-02-23T03:55:44;1.73;;;0.40;;
18649;SDS011;9454;53.516;10.478;2024-02-23T03:58:48;1.45;;;0.45;;
18649;SDS011;9454;53.516;10.478;2024-02-23T04:01:55;3.03;;;0.50;;
18649;SDS011;9454;53.516;10.478;2024-02-23T04:05:00;0.20;;;0.20;;
18649;SDS011;9454;53.516;10.478;2024-02-23T04:08:03;2.72;;;0.40;;
18649;SDS011;9454;53.516;10.478;2024-02-23T04:11:09;0.30;;;0.30;;
18649;SDS011;9454;53.516;10.478;2024-02-23T04:14:16;0.20;;;0.20;;
18649;SDS011;9454;53.516;10.478;2024-02-23T04:17:21;0.38;;;0.30;;
18649;SDS011;9454;53.516;10.478;2024-02-23T04:20:25;0.28;;;0.28;;
18649;SDS011;9454;53.516;10.478;2024-02-23T04:23:28;0.47;;;0.30;;
18649;SDS011;9454;53.516;10.478;2024-02-23T04:26:37;1.33;;;0.43;;
18649;SDS011;9454;53.516;10.478;2024-02-23T04:29:41;0.30;;;0.30;;
18649;SDS011;9454;53.516;10.478;2024-02-23T04:32:45;0.32;;;0.32;;
18649;SDS011;9454;53.516;10.478;2024-02-23T04:35:54;0.28;;;0.22;;
18649;SDS011;9454;53.516;10.478;2024-02-23T04:38:58;0.65;;;0.30;;
18649;SDS011;9454;53.516;10.478;2024-02-23T04:42:07;0.30;;;0.30;;
18649;SDS011;9454;53.516;10.478;2024-02-23T04:45:10;0.28;;;0.28;;
18649;SDS011;9454;53.516;10.478;2024-02-23T04:48:15;0.35;;;0.30;;
18649;SDS011;9454;53.516;10.478;2024-02-23T04:51:20;0.68;;;0.30;;
18649;SDS011;9454;53.516;10.478;2024-02-23T04:54:27;0.50;;;0.50;;
18649;SDS011;9454;53.516;10.478;2024-02-23T04:57:32;0.52;;;0.50;;
18649;SDS011;9454;53.516;10.478;2024-02-23T05:00:36;0.45;;;0.40;;
18649;SDS011;9454;53.516;10.478;2024-02-23T05:03:42;0.82;;;0.40;;
18649;SDS011;9454;53.516;10.478;2024-02-23T05:06:48;2.05;;;0.60;;
18649;SDS011;9454;53.516;10.478;2024-02-23T05:09:52;3.85;;;0.50;;
18649;SDS011;9454;53.516;10.478;2024-02-23T05:12:58;0.47;;;0.47;;
18649;SDS011;9454;53.516;10.478;2024-02-23T05:16:02;3.13;;;1.27;;
18649;SDS011;9454;53.516;10.478;2024-02-23T05:19:05;1.95;;;0.68;;
18649;SDS011;9454;53.516;10.478;2024-02-23T05:22:08;4.05;;;0.88;;
18649;SDS011;9454;53.516;10.478;2024-02-23T05:25:13;2.17;;;0.60;;
18649;SDS011;9454;53.516;10.478;2024-02-23T05:28:17;5.00;;;1.00;;
18649;SDS011;9454;53.516;10.478;2024-02-23T05:31:43;1.52;;;0.93;;
18649;SDS011;9454;53.516;10.478;2024-02-23T05:34:48;1.48;;;0.57;;
18649;SDS011;9454;53.516;10.478;2024-02-23T05:37:56;2.05;;;0.70;;
18649;SDS011;9454;53.516;10.478;2024-02-23T05:41:00;2.30;;;0.63;;
18649;SDS011;9454;53.516;10.478;2024-02-23T05:44:05;1.52;;;0.68;;
18649;SDS011;9454;53.516;10.478;2024-02-23T05:47:09;5.35;;;0.65;;
18649;SDS011;9454;53.516;10.478;2024-02-23T05:50:15;1.88;;;0.80;;
18649;SDS011;9454;53.516;10.478;2024-02-23T05:53:20;2.38;;;0.68;;
18649;SDS011;9454;53.516;10.478;2024-02-23T05:56:24;2.53;;;1.00;;
18649;SDS011;9454;53.516;10.478;2024-02-23T05:59:40;1.63;;;0.75;;
18649;SDS011;9454;53.516;10.478;2024-02-23T06:02:45;4.75;;;1.02;;
18649;SDS011;9454;53.516;10.478;2024-02-23T06:05:49;2.38;;;0.65;;
18649;SDS011;9454;53.516;10.478;2024-02-23T06:08:52;2.28;;;0.70;;
18649;SDS011;9454;53.516;10.478;2024-02-23T06:11:56;1.40;;;0.75;;
18649;SDS011;9454;53.516;10.478;2024-02-23T06:15:01;6.68;;;0.70;;
18649;SDS011;9454;53.516;10.478;2024-02-23T06:18:05;3.33;;;0.63;;
18649;SDS011;9454;53.516;10.478;2024-02-23T06:21:12;3.10;;;0.70;;
18649;SDS011;9454;53.516;10.478;2024-02-23T06:24:17;6.43;;;0.90;;
18649;SDS011;9454;53.516;10.478;2024-02-23T06:27:21;0.57;;;0.57;;
18649;SDS011;9454;53.516;10.478;2024-02-23T06:30:28;2.05;;;0.80;;
18649;SDS011;9454;53.516;10.478;2024-02-23T06:33:31;1.27;;;0.70;;
18649;SDS011;9454;53.516;10.478;2024-02-23T06:36:38;3.00;;;0.57;;
18649;SDS011;9454;53.516;10.478;2024-02-23T06:39:41;0.85;;;0.70;;
18649;SDS011;9454;53.516;10.478;2024-02-23T06:42:48;1.60;;;0.93;;
18649;SDS011;9454;53.516;10.478;2024-02-23T06:45:53;2.75;;;1.05;;
18649;SDS011;9454;53.516;10.478;2024-02-23T06:48:58;2.00;;;1.05;;
18649;SDS011;9454;53.516;10.478;2024-02-23T06:52:02;3.75;;;0.70;;
18649;SDS011;9454;53.516;10.478;2024-02-23T06:55:06;3.95;;;0.90;;
18649;SDS011;9454;53.516;10.478;2024-02-23T06:58:11;2.42;;;1.00;;
18649;SDS011;9454;53.516;10.478;2024-02-23T07:01:21;4.53;;;0.82;;
18649;SDS011;9454;53.516;10.478;2024-02-23T07:04:25;2.60;;;1.00;;
18649;SDS011;9454;53.516;10.478;2024-02-23T07:07:30;1.17;;;0.80;;
18649;SDS011;9454;53.516;10.478;2024-02-23T07:10:34;2.22;;;0.77;;
18649;SDS011;9454;53.516;10.478;2024-02-23T07:13:37;2.72;;;1.00;;
18649;SDS011;9454;53.516;10.478;2024-02-23T07:16:43;1.20;;;0.70;;
18649;SDS011;9454;53.516;10.478;2024-02-23T07:19:47;3.53;;;0.70;;
18649;SDS011;9454;53.516;10.478;2024-02-23T07:22:52;2.58;;;0.82;;
18649;SDS011;9454;53.516;10.478;2024-02-23T07:25:56;6.97;;;1.27;;
18649;SDS011;9454;53.516;10.478;2024-02-23T07:29:00;6.93;;;1.15;;
18649;SDS011;9454;53.516;10.478;2024-02-23T07:32:05;7.72;;;0.90;;
18649;SDS011;9454;53.516;10.478;2024-02-23T07:35:10;1.23;;;0.80;;
18649;SDS011;9454;53.516;10.478;2024-02-23T07:38:14;7.38;;;1.23;;
18649;SDS011;9454;53.516;10.478;2024-02-23T07:41:22;4.45;;;0.80;;
18649;SDS011;9454;53.516;10.478;2024-02-23T07:44:33;1.77;;;0.80;;
18649;SDS011;9454;53.516;10.478;2024-02-23T07:47:39;4.85;;;0.82;;
18649;SDS011;9454;53.516;10.478;2024-02-23T07:51:12;0.50;;;0.50;;
18649;SDS011;9454;53.516;10.478;2024-02-23T07:54:16;2.95;;;0.80;;
18649;SDS011;9454;53.516;10.478;2024-02-23T07:57:20;5.65;;;1.00;;
18649;SDS011;9454;53.516;10.478;2024-02-23T08:00:24;5.38;;;0.77;;
18649;SDS011;9454;53.516;10.478;2024-02-23T08:03:29;2.38;;;0.80;;
18649;SDS011;9454;53.516;10.478;2024-02-23T08:06:34;3.92;;;0.90;;
18649;SDS011;9454;53.516;10.478;2024-02-23T08:09:44;3.60;;;0.98;;
18649;SDS011;9454;53.516;10.478;2024-02-23T08:12:47;3.70;;;0.60;;
18649;SDS011;9454;53.516;10.478;2024-02-23T08:15:51;2.75;;;0.80;;
18649;SDS011;9454;53.516;10.478;2024-02-23T08:19:02;4.22;;;1.02;;
18649;SDS011;9454;53.516;10.478;2024-02-23T08:22:06;5.25;;;1.02;;
18649;SDS011;9454;53.516;10.478;2024-02-23T08:25:10;2.47;;;0.60;;
18649;SDS011;9454;53.516;10.478;2024-02-23T08:28:16;1.90;;;0.80;;
18649;SDS011;9454;53.516;10.478;2024-02-23T08:31:21;7.25;;;0.80;;
18649;SDS011;9454;53.516;10.478;2024-02-23T08:34:25;7.72;;;0.90;;
18649;SDS011;9454;53.516;10.478;2024-02-23T08:37:31;4.28;;;0.82;;
18649;SDS011;9454;53.516;10.478;2024-02-23T08:40:38;4.28;;;0.70;;
18649;SDS011;9454;53.516;10.478;2024-02-23T08:44:06;4.57;;;0.90;;
18649;SDS011;9454;53.516;10.478;2024-02-23T08:47:10;3.20;;;1.08;;
18649;SDS011;9454;53.516;10.478;2024-02-23T08:50:17;2.90;;;0.77;;
18649;SDS011;9454;53.516;10.478;2024-02-23T08:53:21;5.90;;;1.00;;
18649;SDS011;9454;53.516;10.478;2024-02-23T08:56:31;2.78;;;1.30;;
18649;SDS011;9454;53.516;10.478;2024-02-23T08:59:55;1.42;;;1.08;;
18649;SDS011;9454;53.516;10.478;2024-02-23T09:02:59;11.02;;;1.42;;
18649;SDS011;9454;53.516;10.478;2024-02-23T09:06:12;3.60;;;0.90;;
18649;SDS011;9454;53.516;10.478;2024-02-23T09:09:20;2.97;;;0.80;;
18649;SDS011;9454;53.516;10.478;2024-02-23T09:12:25;3.47;;;1.00;;
18649;SDS011;9454;53.516;10.478;2024-02-23T09:15:29;4.38;;;1.00;;
18649;SDS011;9454;53.516;10.478;2024-02-23T09:18:42;3.08;;;0.98;;
18649;SDS011;9454;53.516;10.478;2024-02-23T09:21:48;3.70;;;0.80;;
18649;SDS011;9454;53.516;10.478;2024-02-23T09:24:52;3.10;;;1.05;;
18649;SDS011;9454;53.516;10.478;2024-02-23T09:27:57;3.83;;;0.90;;
18649;SDS011;9454;53.516;10.478;2024-02-23T09:31:10;6.97;;;0.88;;
18649;SDS011;9454;53.516;10.478;2024-02-23T09:34:18;3.47;;;0.88;;
18649;SDS011;9454;53.516;10.478;2024-02-23T09:37:26;2.38;;;0.63;;
18649;SDS011;9454;53.516;10.478;2024-02-23T09:40:30;3.15;;;1.15;;
18649;SDS011;9454;53.516;10.478;2024-02-23T09:43:53;6.80;;;1.17;;
18649;SDS011;9454;53.516;10.478;2024-02-23T09:47:00;3.25;;;0.90;;
18649;SDS011;9454;53.516;10.478;2024-02-23T09:50:10;2.45;;;0.80;;
18649;SDS011;9454;53.516;10.478;2024-02-23T09:53:16;5.03;;;1.00;;
18649;SDS011;9454;53.516;10.478;2024-02-23T09:56:22;7.55;;;0.90;;
18649;SDS011;9454;53.516;10.478;2024-02-23T09:59:28;3.80;;;0.73;;
18649;SDS011;9454;53.516;10.478;2024-02-23T10:02:37;7.68;;;1.23;;
18649;SDS011;9454;53.516;10.478;2024-02-23T10:05:54;1.83;;;0.80;;
18649;SDS011;9454;53.516;10.478;2024-02-23T10:09:04;0.77;;;0.63;;
18649;SDS011;9454;53.516;10.478;2024-02-23T10:12:09;5.55;;;0.80;;
18649;SDS011;9454;53.516;10.478;2024-02-23T10:15:14;3.15;;;0.60;;
18649;SDS011;9454;53.516;10.478;2024-02-23T10:18:43;1.48;;;0.80;;
18649;SDS011;9454;53.516;10.478;2024-02-23T10:21:58;1.52;;;0.65;;
18649;SDS011;9454;53.516;10.478;2024-02-23T10:25:04;12.63;;;0.80;;
18649;SDS011;9454;53.516;10.478;2024-02-23T10:28:20;4.95;;;0.95;;
18649;SDS011;9454;53.516;10.478;2024-02-23T10:31:34;2.38;;;0.82;;
18649;SDS011;9454;53.516;10.478;2024-02-23T10:34:40;2.90;;;0.70;;
18649;SDS011;9454;53.516;10.478;2024-02-23T10:37:47;9.93;;;0.93;;
18649;SDS011;9454;53.516;10.478;2024-02-23T10:41:11;3.05;;;0.73;;
18649;SDS011;9454;53.516;10.478;2024-02-23T10:44:19;11.10;;;0.90;;
18649;SDS011;9454;53.516;10.478;2024-02-23T10:47:33;7.75;;;1.02;;
18649;SDS011;9454;53.516;10.478;2024-02-23T10:50:46;2.75;;;0.73;;
18649;SDS011;9454;53.516;10.478;2024-02-23T10:53:51;3.13;;;1.02;;
18649;SDS011;9454;53.516;10.478;2024-02-23T10:56:59;2.65;;;0.88;;
18649;SDS011;9454;53.516;10.478;2024-02-23T11:00:08;3.55;;;0.80;;
18649;SDS011;9454;53.516;10.478;2024-02-23T11:03:23;4.90;;;0.70;;
18649;SDS011;9454;53.516;10.478;2024-02-23T11:06:39;3.10;;;1.00;;
18649;SDS011;9454;53.516;10.478;2024-02-23T11:09:43;1.42;;;0.55;;
18649;SDS011;9454;53.516;10.478;2024-02-23T11:12:58;2.30;;;0.70;;
18649;SDS011;9454;53.516;10.478;2024-02-23T11:16:03;2.28;;;0.88;;
18649;SDS011;9454;53.516;10.478;2024-02-23T11:19:07;3.10;;;0.80;;
18649;SDS011;9454;53.516;10.478;2024-02-23T11:22:13;3.22;;;0.57;;
18649;SDS011;9454;53.516;10.478;2024-02-23T11:25:26;5.07;;;0.70;;
18649;SDS011;9454;53.516;10.478;2024-02-23T11:28:32;2.50;;;0.73;;
18649;SDS011;9454;53.516;10.478;2024-02-23T11:31:36;8.90;;;0.60;;
18649;SDS011;9454;53.516;10.478;2024-02-23T11:34:55;4.32;;;0.80;;
18649;SDS011;9454;53.516;10.478;2024-02-23T11:37:59;4.18;;;0.88;;
18649;SDS011;9454;53.516;10.478;2024-02-23T11:41:11;5.45;;;0.65;;
18649;SDS011;9454;53.516;10.478;2024-02-23T11:44:23;5.68;;;0.82;;
18649;SDS011;9454;53.516;10.478;2024-02-23T11:47:27;5.45;;;0.75;;
18649;SDS011;9454;53.516;10.478;2024-02-23T11:50:31;4.68;;;1.00;;
18649;SDS011;9454;53.516;10.478;2024-02-23T11:53:36;1.75;;;0.60;;
18649;SDS011;9454;53.516;10.478;2024-02-23T11:56:40;2.00;;;0.60;;
18649;SDS011;9454;53.516;10.478;2024-02-23T11:59:46;1.92;;;0.52;;
18649;SDS011;9454;53.516;10.478;2024-02-23T12:02:49;1.48;;;0.40;;
18649;SDS011;9454;53.516;10.478;2024-02-23T12:06:02;3.63;;;0.65;;
18649;SDS011;9454;53.516;10.478;2024-02-23T12:09:07;5.97;;;0.60;;
18649;SDS011;9454;53.516;10.478;2024-02-23T12:12:11;3.42;;;0.50;;
18649;SDS011;9454;53.516;10.478;2024-02-23T12:15:17;4.78;;;0.57;;
18649;SDS011;9454;53.516;10.478;2024-02-23T12:18:22;3.88;;;0.82;;
18649;SDS011;9454;53.516;10.478;2024-02-23T12:21:33;1.23;;;0.40;;
18649;SDS011;9454;53.516;10.478;2024-02-23T12:24:53;1.75;;;0.57;;
18649;SDS011;9454;53.516;10.478;2024-02-23T12:27:56;2.40;;;0.70;;
18649;SDS011;9454;53.516;10.478;2024-02-23T12:31:03;1.85;;;0.50;;
18649;SDS011;9454;53.516;10.478;2024-02-23T12:34:07;4.45;;;0.65;;
18649;SDS011;9454;53.516;10.478;2024-02-23T12:37:15;1.33;;;0.65;;
18649;SDS011;9454;53.516;10.478;2024-02-23T12:40:19;2.58;;;0.63;;
18649;SDS011;9454;53.516;10.478;2024-02-23T12:43:28;1.15;;;0.63;;
18649;SDS011;9454;53.516;10.478;2024-02-23T12:46:37;1.35;;;0.63;;
18649;SDS011;9454;53.516;10.478;2024-02-23T12:49:43;2.45;;;0.52;;
18649;SDS011;9454;53.516;10.478;2024-02-23T12:52:47;4.05;;;0.82;;
18649;SDS011;9454;53.516;10.478;2024-02-23T12:55:50;1.25;;;0.63;;
18649;SDS011;9454;53.516;10.478;2024-02-23T12:58:57;2.75;;;0.60;;
18649;SDS011;9454;53.516;10.478;2024-02-23T13:02:03;1.98;;;0.57;;
18649;SDS011;9454;53.516;10.478;2024-02-23T13:05:09;4.40;;;0.75;;
18649;SDS011;9454;53.516;10.478;2024-02-23T13:08:13;3.80;;;0.85;;
18649;SDS011;9454;53.516;10.478;2024-02-23T13:11:17;2.03;;;0.60;;
18649;SDS011;9454;53.516;10.478;2024-02-23T13:14:21;1.95;;;0.60;;
18649;SDS011;9454;53.516;10.478;2024-02-23T13:17:30;0.55;;;0.40;;
18649;SDS011;9454;53.516;10.478;2024-02-23T13:20:37;4.90;;;0.73;;
18649;SDS011;9454;53.516;10.478;2024-02-23T13:23:54;3.38;;;0.70;;
18649;SDS011;9454;53.516;10.478;2024-02-23T13:26:59;3.42;;;0.68;;
18649;SDS011;9454;53.516;10.478;2024-02-23T13:30:05;1.88;;;0.73;;
18649;SDS011;9454;53.516;10.478;2024-02-23T13:33:11;1.75;;;0.45;;
18649;SDS011;9454;53.516;10.478;2024-02-23T13:36:16;2.58;;;0.70;;
18649;SDS011;9454;53.516;10.478;2024-02-23T13:39:23;2.20;;;0.60;;
18649;SDS011;9454;53.516;10.478;2024-02-23T13:42:27;1.55;;;0.63;;
18649;SDS011;9454;53.516;10.478;2024-02-23T13:45:31;1.50;;;0.70;;
18649;SDS011;9454;53.516;10.478;2024-02-23T13:48:37;2.65;;;1.20;;
18649;SDS011;9454;53.516;10.478;2024-02-23T13:51:40;3.03;;;1.00;;
18649;SDS011;9454;53.516;10.478;2024-02-23T13:54:44;0.75;;;0.52;;
18649;SDS011;9454;53.516;10.478;2024-02-23T13:57:48;1.70;;;0.60;;
18649;SDS011;9454;53.516;10.478;2024-02-23T14:00:52;1.60;;;0.80;;
18649;SDS011;9454;53.516;10.478;2024-02-23T14:03:57;1.73;;;0.50;;
18649;SDS011;9454;53.516;10.478;2024-02-23T14:07:01;4.22;;;0.70;;
18649;SDS011;9454;53.516;10.478;2024-02-23T14:10:11;5.50;;;0.90;;
18649;SDS011;9454;53.516;10.478;2024-02-23T14:13:16;6.22;;;0.80;;
18649;SDS011;9454;53.516;10.478;2024-02-23T14:16:29;2.13;;;0.47;;
18649;SDS011;9454;53.516;10.478;2024-02-23T14:19:43;2.03;;;0.60;;
18649;SDS011;9454;53.516;10.478;2024-02-23T14:22:47;2.45;;;0.60;;
18649;SDS011;9454;53.516;10.478;2024-02-23T14:25:52;0.55;;;0.52;;
18649;SDS011;9454;53.516;10.478;2024-02-23T14:28:55;1.27;;;0.50;;
18649;SDS011;9454;53.516;10.478;2024-02-23T14:32:00;7.78;;;0.80;;
18649;SDS011;9454;53.516;10.478;2024-02-23T14:35:05;2.42;;;0.50;;
18649;SDS011;9454;53.516;10.478;2024-02-23T14:38:11;1.20;;;0.55;;
18649;SDS011;9454;53.516;10.478;2024-02-23T14:41:15;0.45;;;0.35;;
18649;SDS011;9454;53.516;10.478;2024-02-23T14:44:19;0.95;;;0.60;;
18649;SDS011;9454;53.516;10.478;2024-02-23T14:47:26;1.63;;;0.70;;
18649;SDS011;9454;53.516;10.478;2024-02-23T14:50:47;0.68;;;0.60;;
18649;SDS011;9454;53.516;10.478;2024-02-23T14:53:51;1.45;;;0.88;;
18649;SDS011;9454;53.516;10.478;2024-02-23T14:56:57;4.60;;;1.33;;
18649;SDS011;9454;53.516;10.478;2024-02-23T15:00:00;1.08;;;0.40;;
18649;SDS011;9454;53.516;10.478;2024-02-23T15:03:04;0.98;;;0.75;;
18649;SDS011;9454;53.516;10.478;2024-02-23T15:06:11;2.22;;;1.38;;
18649;SDS011;9454;53.516;10.478;2024-02-23T15:09:15;4.68;;;1.42;;
18649;SDS011;9454;53.516;10.478;2024-02-23T15:12:19;9.85;;;1.05;;
18649;SDS011;9454;53.516;10.478;2024-02-23T15:15:31;5.90;;;1.05;;
18649;SDS011;9454;53.516;10.478;2024-02-23T15:18:41;3.70;;;1.10;;
18649;SDS011;9454;53.516;10.478;2024-02-23T15:21:47;5.40;;;1.95;;
18649;SDS011;9454;53.516;10.478;2024-02-23T15:24:50;2.28;;;0.95;;
18649;SDS011;9454;53.516;10.478;2024-02-23T15:27:54;2.53;;;1.00;;
18649;SDS011;9454;53.516;10.478;2024-02-23T15:30:59;2.45;;;0.82;;
18649;SDS011;9454;53.516;10.478;2024-02-23T15:34:04;2.50;;;1.15;;
18649;SDS011;9454;53.516;10.478;2024-02-23T15:37:14;4.45;;;0.80;;
18649;SDS011;9454;53.516;10.478;2024-02-23T15:40:17;3.45;;;1.13;;
18649;SDS011;9454;53.516;10.478;2024-02-23T15:43:21;5.53;;;0.63;;
18649;SDS011;9454;53.516;10.478;2024-02-23T15:46:25;3.78;;;0.75;;
18649;SDS011;9454;53.516;10.478;2024-02-23T15:49:31;3.22;;;0.88;;
18649;SDS011;9454;53.516;10.478;2024-02-23T15:52:56;10.82;;;0.90;;
18649;SDS011;9454;53.516;10.478;2024-02-23T15:56:00;1.35;;;0.85;;
18649;SDS011;9454;53.516;10.478;2024-02-23T15:59:05;2.08;;;0.47;;
18649;SDS011;9454;53.516;10.478;2024-02-23T16:02:12;2.40;;;0.68;;
18649;SDS011;9454;53.516;10.478;2024-02-23T16:05:16;2.88;;;0.52;;
18649;SDS011;9454;53.516;10.478;2024-02-23T16:08:37;1.30;;;0.57;;
18649;SDS011;9454;53.516;10.478;2024-02-23T16:11:43;2.65;;;0.60;;
18649;SDS011;9454;53.516;10.478;2024-02-23T16:14:48;2.20;;;0.70;;
18649;SDS011;9454;53.516;10.478;2024-02-23T16:17:52;2.13;;;0.70;;
18649;SDS011;9454;53.516;10.478;2024-02-23T16:20:57;4.03;;;0.68;;
18649;SDS011;9454;53.516;10.478;2024-02-23T16:24:03;4.22;;;0.80;;
18649;SDS011;9454;53.516;10.478;2024-02-23T16:27:06;1.45;;;0.70;;
18649;SDS011;9454;53.516;10.478;2024-02-23T16:30:10;1.58;;;0.57;;
18649;SDS011;9454;53.516;10.478;2024-02-23T16:33:14;1.13;;;0.52;;
18649;SDS011;9454;53.516;10.478;2024-02-23T16:36:18;1.17;;;0.50;;
18649;SDS011;9454;53.516;10.478;2024-02-23T16:39:23;3.95;;;0.60;;
18649;SDS011;9454;53.516;10.478;2024-02-23T16:42:27;5.95;;;0.82;;
18649;SDS011;9454;53.516;10.478;2024-02-23T16:45:31;2.15;;;0.70;;
18649;SDS011;9454;53.516;10.478;2024-02-23T16:48:34;3.47;;;0.57;;
18649;SDS011;9454;53.516;10.478;2024-02-23T16:51:38;7.07;;;1.08;;
18649;SDS011;9454;53.516;10.478;2024-02-23T16:54:43;1.27;;;0.70;;
18649;SDS011;9454;53.516;10.478;2024-02-23T16:57:47;7.68;;;1.00;;
18649;SDS011;9454;53.516;10.478;2024-02-23T17:00:54;6.32;;;1.00;;
18649;SDS011;9454;53.516;10.478;2024-02-23T17:03:59;0.73;;;0.55;;
18649;SDS011;9454;53.516;10.478;2024-02-23T17:07:04;3.50;;;1.02;;
18649;SDS011;9454;53.516;10.478;2024-02-23T17:10:15;4.90;;;1.50;;
18649;SDS011;9454;53.516;10.478;2024-02-23T17:13:39;3.03;;;1.10;;
18649;SDS011;9454;53.516;10.478;2024-02-23T17:16:45;25.65;;;9.93;;
18649;SDS011;9454;53.516;10.478;2024-02-23T17:19:50;17.00;;;7.22;;
18649;SDS011;9454;53.516;10.478;2024-02-23T17:22:56;63.47;;;25.23;;
18649;SDS011;9454;53.516;10.478;2024-02-23T17:26:01;85.30;;;33.35;;
18649;SDS011;9454;53.516;10.478;2024-02-23T17:29:06;19.60;;;8.38;;
18649;SDS011;9454;53.516;10.478;2024-02-23T17:32:11;18.85;;;6.93;;
18649;SDS011;9454;53.516;10.478;2024-02-23T17:35:15;13.18;;;6.30;;
18649;SDS011;9454;53.516;10.478;2024-02-23T17:38:19;19.13;;;7.15;;
18649;SDS011;9454;53.516;10.478;2024-02-23T17:41:24;9.05;;;3.33;;
18649;SDS011;9454;53.516;10.478;2024-02-23T17:44:28;8.82;;;2.20;;
18649;SDS011;9454;53.516;10.478;2024-02-23T17:47:32;9.23;;;2.78;;
18649;SDS011;9454;53.516;10.478;2024-02-23T17:50:36;4.53;;;2.08;;
18649;SDS011;9454;53.516;10.478;2024-02-23T17:53:40;8.82;;;2.45;;
18649;SDS011;9454;53.516;10.478;2024-02-23T18:00:17;5.05;;;1.85;;
18649;SDS011;9454;53.516;10.478;2024-02-23T18:03:22;7.10;;;1.92;;
18649;SDS011;9454;53.516;10.478;2024-02-23T18:06:25;3.10;;;1.23;;
18649;SDS011;9454;53.516;10.478;2024-02-23T18:09:29;4.85;;;1.30;;
18649;SDS011;9454;53.516;10.478;2024-02-23T18:12:33;7.82;;;1.92;;
18649;SDS011;9454;53.516;10.478;2024-02-23T18:15:38;1.23;;;0.80;;
18649;SDS011;9454;53.516;10.478;2024-02-23T18:18:42;4.30;;;1.10;;
18649;SDS011;9454;53.516;10.478;2024-02-23T18:21:45;4.10;;;0.90;;
18649;SDS011;9454;53.516;10.478;2024-02-23T18:24:49;7.07;;;1.10;;
18649;SDS011;9454;53.516;10.478;2024-02-23T18:27:53;1.70;;;1.08;;
18649;SDS011;9454;53.516;10.478;2024-02-23T18:30:59;3.60;;;1.17;;
18649;SDS011;9454;53.516;10.478;2024-02-23T18:34:03;5.88;;;1.67;;
18649;SDS011;9454;53.516;10.478;2024-02-23T18:37:07;4.97;;;1.65;;
18649;SDS011;9454;53.516;10.478;2024-02-23T18:40:11;3.58;;;1.15;;
18649;SDS011;9454;53.516;10.478;2024-02-23T18:43:15;7.70;;;1.58;;
18649;SDS011;9454;53.516;10.478;2024-02-23T18:46:20;4.25;;;1.75;;